createdAt,value
2019-02-04T00:00:01.092Z,20
2019-02-04T00:01:01.088Z,22
2019-02-04T00:02:01.115Z,21
2019-02-04T00:03:01.083Z,19
2019-02-04T00:04:01.226Z,17
2019-02-04T00:06:01.082Z,14
2019-02-04T00:08:01.085Z,15
2019-02-04T00:09:01.111Z,17
2019-02-04T00:10:01.094Z,16
2019-02-04T00:11:01.087Z,18
2019-02-04T00:12:01.084Z,20
2019-02-04T00:13:01.085Z,19
2019-02-04T00:14:01.110Z,18
2019-02-04T00:15:01.086Z,16
2019-02-04T00:16:02.092Z,15
2019-02-04T00:17:01.083Z,12
2019-02-04T00:18:01.084Z,13
2019-02-04T00:19:01.122Z,14
2019-02-04T00:20:01.093Z,16
2019-02-04T00:25:01.089Z,17
2019-02-04T00:26:01.087Z,16
2019-02-04T00:27:01.086Z,17
2019-02-04T00:28:01.089Z,16
2019-02-04T00:30:01.089Z,16
2019-02-04T00:31:01.087Z,18
2019-02-04T00:35:01.088Z,15
2019-02-04T00:36:01.093Z,14
2019-02-04T00:37:01.089Z,17
2019-02-04T00:38:01.088Z,18
2019-02-04T00:40:01.124Z,19
2019-02-04T00:41:01.090Z,18
2019-02-04T00:42:01.089Z,17
2019-02-04T00:44:01.753Z,16
2019-02-04T00:45:01.134Z,16
2019-02-04T00:46:01.089Z,17
2019-02-04T00:48:01.092Z,18
2019-02-04T00:50:01.128Z,21
2019-02-04T00:52:01.096Z,22
2019-02-04T00:53:01.092Z,21
2019-02-04T00:55:01.135Z,18
2019-02-04T00:56:01.093Z,16
2019-02-04T00:57:01.092Z,13
2019-02-04T00:59:01.093Z,16
2019-02-04T01:00:01.127Z,18
2019-02-04T01:01:01.091Z,19
2019-02-04T01:02:01.092Z,21
2019-02-04T01:03:01.095Z,20
2019-02-04T01:04:02.292Z,18
2019-02-04T01:07:01.121Z,17
2019-02-04T01:08:01.096Z,18
2019-02-04T01:09:01.120Z,19
2019-02-04T01:10:01.094Z,18
2019-02-04T01:11:01.093Z,17
2019-02-04T01:12:01.091Z,18
2019-02-04T01:13:01.093Z,17
2019-02-04T01:14:01.122Z,16
2019-02-04T01:15:01.106Z,17
2019-02-04T01:16:01.093Z,18
2019-02-04T01:17:03.351Z,14
2019-02-04T01:19:01.120Z,15
2019-02-04T01:21:01.092Z,16
2019-02-04T01:22:01.097Z,18
2019-02-04T01:23:01.095Z,17
2019-02-04T01:24:01.128Z,18
2019-02-04T01:25:01.097Z,17
2019-02-04T01:26:01.093Z,15
2019-02-04T01:27:01.094Z,14
2019-02-04T01:28:01.124Z,15
2019-02-04T01:30:01.093Z,16
2019-02-04T01:31:01.094Z,17
2019-02-04T01:33:01.103Z,19
2019-02-04T01:35:01.080Z,18
2019-02-04T01:37:01.078Z,16
2019-02-04T01:39:01.106Z,15
2019-02-04T01:40:01.083Z,14
2019-02-04T01:41:01.080Z,15
2019-02-04T01:42:01.077Z,17
2019-02-04T01:44:01.108Z,16
2019-02-04T01:45:01.079Z,17
2019-02-04T01:46:01.082Z,16
2019-02-04T01:49:01.108Z,18
2019-02-04T01:50:01.083Z,17
2019-02-04T01:51:01.091Z,16
2019-02-04T01:52:01.084Z,17
2019-02-04T01:54:01.119Z,15
2019-02-04T01:55:01.089Z,14
2019-02-04T01:57:01.081Z,12
2019-02-04T01:58:01.106Z,14
2019-02-04T01:59:01.080Z,15
2019-02-04T02:00:01.092Z,16
2019-02-04T02:02:01.107Z,17
2019-02-04T02:03:01.082Z,15
2019-02-04T02:04:01.082Z,16
2019-02-04T02:05:01.087Z,15
2019-02-04T02:06:01.090Z,14
2019-02-04T02:08:01.111Z,15
2019-02-04T02:10:01.091Z,16
2019-02-04T02:11:01.091Z,17
2019-02-04T02:12:01.113Z,15
2019-02-04T02:13:01.119Z,14
2019-02-04T02:14:01.087Z,13
2019-02-04T02:15:01.086Z,12
2019-02-04T02:16:01.087Z,14
2019-02-04T02:17:01.114Z,16
2019-02-04T02:18:01.087Z,17
2019-02-04T02:21:01.092Z,18
2019-02-04T02:23:01.118Z,17
2019-02-04T02:24:01.091Z,16
2019-02-04T02:25:01.137Z,17
2019-02-04T02:26:01.090Z,15
2019-02-04T02:29:01.123Z,17
2019-02-04T02:30:01.096Z,17
2019-02-04T02:31:02.034Z,16
2019-02-04T02:33:01.118Z,17
2019-02-04T02:34:01.092Z,15
2019-02-04T02:36:01.127Z,16
2019-02-04T02:37:01.091Z,17
2019-02-04T02:38:01.092Z,16
2019-02-04T02:39:01.100Z,18
2019-02-04T02:41:01.124Z,17
2019-02-04T02:42:01.093Z,16
2019-02-04T02:44:01.094Z,15
2019-02-04T02:45:01.116Z,16
2019-02-04T02:46:01.128Z,18
2019-02-04T02:47:01.094Z,17
2019-02-04T02:48:01.092Z,18
2019-02-04T02:51:01.136Z,16
2019-02-04T02:52:01.095Z,17
2019-02-04T02:53:01.713Z,16
2019-02-04T02:56:01.130Z,18
2019-02-04T02:58:01.098Z,19
2019-02-04T03:00:01.086Z,18
2019-02-04T03:01:01.083Z,17
2019-02-04T03:02:01.116Z,16
2019-02-04T03:03:01.083Z,13
2019-02-04T03:04:01.083Z,15
2019-02-04T03:05:01.082Z,16
2019-02-04T03:07:01.082Z,15
2019-02-04T03:08:01.115Z,16
2019-02-04T03:09:01.086Z,14
2019-02-04T03:12:01.083Z,15
2019-02-04T03:14:01.133Z,16
2019-02-04T03:15:01.087Z,17
2019-02-04T03:18:01.085Z,19
2019-02-04T03:19:01.084Z,18
2019-02-04T03:20:01.138Z,17
2019-02-04T03:22:01.085Z,16
2019-02-04T03:23:01.089Z,14
2019-02-04T03:24:01.084Z,16
2019-02-04T03:25:01.089Z,14
2019-02-04T03:26:01.086Z,15
2019-02-04T03:27:01.085Z,16
2019-02-04T03:30:01.125Z,17
2019-02-04T03:31:01.100Z,18
2019-02-04T03:33:01.097Z,17
2019-02-04T03:34:01.086Z,16
2019-02-04T03:37:01.086Z,17
2019-02-04T03:40:01.085Z,18
2019-02-04T03:41:01.954Z,16
2019-02-04T03:42:01.094Z,15
2019-02-04T03:45:01.148Z,14
2019-02-04T03:46:01.087Z,15
2019-02-04T03:48:04.746Z,16
2019-02-04T03:49:01.088Z,15
2019-02-04T03:50:01.127Z,14
2019-02-04T03:53:01.091Z,13
2019-02-04T03:54:01.090Z,14
2019-02-04T03:55:01.141Z,15
2019-02-04T03:56:01.091Z,14
2019-02-04T03:58:01.095Z,15
2019-02-04T04:00:06.094Z,16
2019-02-04T04:01:01.093Z,15
2019-02-04T04:03:01.093Z,16
2019-02-04T04:04:01.096Z,15
2019-02-04T04:05:01.125Z,16
2019-02-04T04:06:01.094Z,17
2019-02-04T04:09:01.095Z,16
2019-02-04T04:10:01.121Z,15
2019-02-04T04:14:01.097Z,16
2019-02-04T04:15:01.095Z,16
2019-02-04T04:16:01.098Z,15
2019-02-04T04:19:01.097Z,16
2019-02-04T04:20:01.107Z,17
2019-02-04T04:23:01.098Z,16
2019-02-04T04:24:01.097Z,13
2019-02-04T04:26:01.131Z,14
2019-02-04T04:27:01.187Z,15
2019-02-04T04:29:01.099Z,16
2019-02-04T04:30:01.100Z,16
2019-02-04T04:31:01.123Z,14
2019-02-04T04:35:01.106Z,15
2019-02-04T04:36:01.127Z,16
2019-02-04T04:38:01.092Z,15
2019-02-04T04:39:01.091Z,14
2019-02-04T04:41:01.129Z,15
2019-02-04T04:42:01.092Z,14
2019-02-04T04:43:01.092Z,15
2019-02-04T04:44:01.097Z,16
2019-02-04T04:45:01.092Z,14
2019-02-04T04:47:02.274Z,13
2019-02-04T04:49:01.093Z,15
2019-02-04T04:50:01.094Z,17
2019-02-04T04:51:01.097Z,18
2019-02-04T04:52:01.127Z,17
2019-02-04T04:53:01.093Z,19
2019-02-04T04:54:01.093Z,20
2019-02-04T04:55:01.092Z,17
2019-02-04T04:56:01.093Z,16
2019-02-04T04:57:01.167Z,17
2019-02-04T04:58:01.092Z,16
2019-02-04T04:59:01.093Z,13
2019-02-04T05:00:01.096Z,16
2019-02-04T05:02:01.124Z,15
2019-02-04T05:04:01.093Z,14
2019-02-04T05:05:01.094Z,13
2019-02-04T05:07:01.195Z,16
2019-02-04T05:11:01.105Z,18
2019-02-04T05:12:01.081Z,19
2019-02-04T05:13:01.081Z,17
2019-02-04T05:14:01.109Z,16
2019-02-04T05:15:01.078Z,17
2019-02-04T05:16:01.083Z,15
2019-02-04T05:17:01.078Z,14
2019-02-04T05:20:01.173Z,13
2019-02-04T05:21:01.081Z,14
2019-02-04T05:22:02.079Z,13
2019-02-04T05:23:01.077Z,14
2019-02-04T05:26:01.104Z,15
2019-02-04T05:27:01.080Z,14
2019-02-04T05:30:01.077Z,17
2019-02-04T05:31:01.078Z,14
2019-02-04T05:32:01.416Z,15
2019-02-04T05:34:01.106Z,16
2019-02-04T05:35:01.079Z,14
2019-02-04T05:36:01.091Z,15
2019-02-04T05:37:01.093Z,14
2019-02-04T05:40:01.112Z,15
2019-02-04T05:41:01.083Z,14
2019-02-04T05:42:01.186Z,16
2019-02-04T05:44:01.196Z,15
2019-02-04T05:45:01.089Z,14
2019-02-04T05:46:01.616Z,17
2019-02-04T05:47:01.080Z,16
2019-02-04T05:48:01.085Z,17
2019-02-04T05:49:01.084Z,21
2019-02-04T05:50:01.116Z,20
2019-02-04T05:51:01.083Z,19
2019-02-04T05:53:01.088Z,17
2019-02-04T05:54:01.090Z,15
2019-02-04T05:57:01.110Z,14
2019-02-04T05:58:01.089Z,15
2019-02-04T06:00:01.095Z,16
2019-02-04T06:01:01.115Z,17
2019-02-04T06:02:01.084Z,16
2019-02-04T06:04:01.086Z,15
2019-02-04T06:06:01.108Z,16
2019-02-04T06:07:01.086Z,18
2019-02-04T06:08:01.086Z,21
2019-02-04T06:09:01.085Z,22
2019-02-04T06:10:01.127Z,20
2019-02-04T06:11:01.120Z,19
2019-02-04T06:12:01.093Z,17
2019-02-04T06:13:01.086Z,13
2019-02-04T06:14:01.086Z,12
2019-02-04T06:15:01.088Z,14
2019-02-04T06:17:01.090Z,16
2019-02-04T06:18:01.089Z,18
2019-02-04T06:20:02.905Z,17
2019-02-04T06:21:01.092Z,15
2019-02-04T06:22:01.093Z,14
2019-02-04T06:23:01.091Z,16
2019-02-04T06:24:02.093Z,17
2019-02-04T06:25:01.090Z,15
2019-02-04T06:26:01.127Z,16
2019-02-04T06:28:01.092Z,15
2019-02-04T06:29:01.089Z,13
2019-02-04T06:30:01.091Z,14
2019-02-04T06:32:01.091Z,13
2019-02-04T06:33:01.094Z,12
2019-02-04T06:34:01.095Z,14
2019-02-04T06:35:01.093Z,16
2019-02-04T06:37:01.119Z,19
2019-02-04T06:38:01.092Z,18
2019-02-04T06:39:01.092Z,17
2019-02-04T06:40:01.095Z,15
2019-02-04T06:41:01.095Z,16
2019-02-04T06:42:01.124Z,14
2019-02-04T06:43:01.105Z,15
2019-02-04T06:44:01.102Z,14
2019-02-04T06:46:01.079Z,15
2019-02-04T06:47:01.079Z,16
2019-02-04T06:48:01.080Z,19
2019-02-04T06:49:11.642Z,17
2019-02-04T06:52:01.080Z,18
2019-02-04T06:53:01.078Z,14
2019-02-04T06:54:01.082Z,15
2019-02-04T06:56:01.111Z,16
2019-02-04T06:57:01.080Z,15
2019-02-04T06:59:01.256Z,16
2019-02-04T07:00:01.090Z,16
2019-02-04T07:01:01.107Z,15
2019-02-04T07:02:01.079Z,16
2019-02-04T07:04:01.079Z,17
2019-02-04T07:05:01.079Z,18
2019-02-04T07:06:01.983Z,16
2019-02-04T07:08:01.088Z,18
2019-02-04T07:09:01.081Z,19
2019-02-04T07:10:01.083Z,20
2019-02-04T07:11:01.107Z,21
2019-02-04T07:12:01.080Z,20
2019-02-04T07:13:01.082Z,19
2019-02-04T07:15:01.080Z,18
2019-02-04T07:17:01.080Z,17
2019-02-04T07:18:01.979Z,18
2019-02-04T07:19:01.082Z,17
2019-02-04T07:20:01.163Z,16
2019-02-04T07:21:01.081Z,17
2019-02-04T07:22:01.084Z,18
2019-02-04T07:23:01.086Z,17
2019-02-04T07:24:01.088Z,16
2019-02-04T07:25:01.121Z,14
2019-02-04T07:26:01.087Z,15
2019-02-04T07:27:01.085Z,16
2019-02-04T07:28:01.085Z,17
2019-02-04T07:29:01.086Z,16
2019-02-04T07:30:01.091Z,19
2019-02-04T07:31:01.536Z,17
2019-02-04T07:32:01.086Z,16
2019-02-04T07:33:01.091Z,15
2019-02-04T07:36:03.321Z,16
2019-02-04T07:38:01.102Z,17
2019-02-04T07:39:01.089Z,19
2019-02-04T07:42:01.090Z,20
2019-02-04T07:43:01.096Z,18
2019-02-04T07:45:06.114Z,18
2019-02-04T07:46:01.422Z,16
2019-02-04T07:50:01.119Z,15
2019-02-04T07:52:01.096Z,17
2019-02-04T07:53:06.101Z,16
2019-02-04T07:54:01.093Z,14
2019-02-04T07:55:01.102Z,16
2019-02-04T07:56:01.096Z,19
2019-02-04T07:57:01.094Z,17
2019-02-04T07:59:01.096Z,18
2019-02-04T08:00:01.099Z,17
2019-02-04T08:02:01.106Z,19
2019-02-04T08:03:01.132Z,18
2019-02-04T08:06:01.095Z,15
2019-02-04T08:07:01.101Z,14
2019-02-04T08:08:01.137Z,15
2019-02-04T08:09:01.096Z,16
2019-02-04T08:10:02.180Z,17
2019-02-04T08:11:01.101Z,18
2019-02-04T08:12:01.097Z,17
2019-02-04T08:15:01.081Z,17
2019-02-04T08:16:01.080Z,15
2019-02-04T08:17:01.083Z,14
2019-02-04T08:18:01.083Z,15
2019-02-04T08:19:01.101Z,14
2019-02-04T08:22:01.082Z,15
2019-02-04T08:23:01.085Z,16
2019-02-04T08:25:01.086Z,17
2019-02-04T08:27:01.085Z,16
2019-02-04T08:28:01.087Z,13
2019-02-04T08:29:01.085Z,15
2019-02-04T08:30:01.084Z,14
2019-02-04T08:32:01.085Z,16
2019-02-04T08:34:01.097Z,15
2019-02-04T08:35:01.085Z,17
2019-02-04T08:36:01.086Z,16
2019-02-04T08:39:01.083Z,15
2019-02-04T08:40:01.084Z,14
2019-02-04T08:42:01.083Z,13
2019-02-04T08:43:01.085Z,14
2019-02-04T08:44:01.088Z,13
2019-02-04T08:45:01.084Z,15
2019-02-04T08:46:01.084Z,14
2019-02-04T08:48:01.086Z,13
2019-02-04T08:49:01.099Z,14
2019-02-04T08:50:01.850Z,13
2019-02-04T08:51:01.084Z,15
2019-02-04T08:52:01.083Z,16
2019-02-04T08:54:01.118Z,17
2019-02-04T08:56:01.084Z,16
2019-02-04T08:58:01.090Z,15
2019-02-04T08:59:01.160Z,14
2019-02-04T09:00:01.089Z,13
2019-02-04T09:01:01.084Z,12
2019-02-04T09:02:01.087Z,13
2019-02-04T09:05:01.088Z,14
2019-02-04T09:07:01.768Z,13
2019-02-04T09:08:01.094Z,14
2019-02-04T09:10:01.088Z,15
2019-02-04T09:12:01.086Z,16
2019-02-04T09:15:01.121Z,15
2019-02-04T09:16:01.088Z,17
2019-02-04T09:17:01.087Z,16
2019-02-04T09:21:01.090Z,15
2019-02-04T09:22:01.084Z,16
2019-02-04T09:23:01.090Z,15
2019-02-04T09:24:01.083Z,14
2019-02-04T09:25:01.084Z,15
2019-02-04T09:26:01.088Z,16
2019-02-04T09:28:01.084Z,17
2019-02-04T09:29:01.086Z,19
2019-02-04T09:30:01.090Z,19
2019-02-04T09:31:01.089Z,18
2019-02-04T09:32:01.088Z,17
2019-02-04T09:33:01.087Z,18
2019-02-04T09:35:01.086Z,17
2019-02-04T09:36:01.089Z,18
2019-02-04T09:37:01.091Z,19
2019-02-04T09:39:01.086Z,17
2019-02-04T09:40:01.087Z,16
2019-02-04T09:41:01.113Z,13
2019-02-04T09:42:01.086Z,12
2019-02-04T09:44:01.086Z,14
2019-02-04T09:45:01.092Z,14
2019-02-04T09:46:01.113Z,16
2019-02-04T09:48:01.093Z,15
2019-02-04T09:50:01.089Z,17
2019-02-04T09:51:01.114Z,16
2019-02-04T09:52:01.090Z,17
2019-02-04T09:53:01.090Z,18
2019-02-04T09:54:01.131Z,16
2019-02-04T09:55:01.093Z,17
2019-02-04T09:57:01.114Z,16
2019-02-04T09:59:01.090Z,17
2019-02-04T10:00:01.096Z,17
2019-02-04T10:02:01.115Z,18
2019-02-04T10:03:01.090Z,17
2019-02-04T10:04:01.096Z,15
2019-02-04T10:05:01.095Z,14
2019-02-04T10:06:06.092Z,16
2019-02-04T10:07:01.091Z,13
2019-02-04T10:08:01.094Z,14
2019-02-04T10:09:01.093Z,15
2019-02-04T10:10:01.098Z,16
2019-02-04T10:11:06.095Z,15
2019-02-04T10:12:01.093Z,17
2019-02-04T10:13:01.095Z,16
2019-02-04T10:14:01.100Z,17
2019-02-04T10:15:01.126Z,17
2019-02-04T10:18:01.902Z,18
2019-02-04T10:19:01.119Z,17
2019-02-04T10:20:01.169Z,16
2019-02-04T10:21:01.114Z,15
2019-02-04T10:24:01.121Z,16
2019-02-04T10:25:01.121Z,15
2019-02-04T10:26:01.095Z,16
2019-02-04T10:27:01.102Z,14
2019-02-04T10:28:01.093Z,15
2019-02-04T10:29:01.106Z,14
2019-02-04T10:30:01.141Z,15
2019-02-04T10:34:01.121Z,16
2019-02-04T10:35:01.166Z,17
2019-02-04T10:37:01.113Z,16
2019-02-04T10:38:01.094Z,17
2019-02-04T10:39:01.203Z,16
2019-02-04T10:40:01.090Z,15
2019-02-04T10:41:01.114Z,16
2019-02-04T10:42:01.097Z,17
2019-02-04T10:43:01.127Z,18
2019-02-04T10:44:01.156Z,19
2019-02-04T10:45:01.144Z,21
2019-02-04T10:46:01.271Z,19
2019-02-04T10:50:01.083Z,17
2019-02-04T10:52:01.118Z,18
2019-02-04T10:53:01.082Z,17
2019-02-04T10:54:01.113Z,19
2019-02-04T10:55:01.088Z,20
2019-02-04T10:56:01.090Z,21
2019-02-04T10:58:01.145Z,18
2019-02-04T11:00:02.206Z,19
2019-02-04T11:03:01.151Z,22
2019-02-04T11:04:01.083Z,19
2019-02-04T11:05:01.141Z,18
2019-02-04T11:06:01.083Z,17
2019-02-04T11:07:01.193Z,15
2019-02-04T11:08:01.137Z,12
2019-02-04T11:09:01.837Z,13
2019-02-04T11:11:01.104Z,14
2019-02-04T11:12:01.118Z,16
2019-02-04T11:13:01.085Z,18
2019-02-04T11:15:01.103Z,18
2019-02-04T11:18:01.127Z,17
2019-02-04T11:19:01.082Z,15
2019-02-04T11:20:01.147Z,16
2019-02-04T11:22:01.139Z,15
2019-02-04T11:23:01.135Z,14
2019-02-04T11:24:01.116Z,16
2019-02-04T11:25:01.088Z,15
2019-02-04T11:27:01.083Z,16
2019-02-04T11:28:01.129Z,18
2019-02-04T11:30:06.089Z,18
2019-02-04T11:31:01.106Z,16
2019-02-04T11:32:01.115Z,15
2019-02-04T11:33:01.091Z,14
2019-02-04T11:34:02.152Z,16
2019-02-04T11:35:01.088Z,18
2019-02-04T11:37:01.104Z,19
2019-02-04T11:39:01.106Z,17
2019-02-04T11:41:01.153Z,18
2019-02-04T11:42:01.085Z,20
2019-02-04T11:43:01.086Z,19
2019-02-04T11:44:01.138Z,22
2019-02-04T11:45:01.106Z,20
2019-02-04T11:46:01.163Z,18
2019-02-04T11:47:01.082Z,16
2019-02-04T11:48:01.084Z,17
2019-02-04T11:49:02.467Z,15
2019-02-04T11:50:01.082Z,16
2019-02-04T11:51:09.152Z,17
2019-02-04T11:53:01.113Z,15
2019-02-04T11:54:01.082Z,17
2019-02-04T11:55:01.339Z,18
2019-02-04T11:59:01.084Z,16
2019-02-04T12:00:01.081Z,15
2019-02-04T12:01:01.086Z,14
2019-02-04T12:02:01.084Z,15
2019-02-04T12:03:01.109Z,17
2019-02-04T12:04:01.082Z,18
2019-02-04T12:05:01.088Z,19
2019-02-04T12:06:01.080Z,20
2019-02-04T12:07:01.082Z,19
2019-02-04T12:09:01.109Z,18
2019-02-04T12:11:01.085Z,19
2019-02-04T12:13:01.108Z,17
2019-02-04T12:14:01.989Z,18
2019-02-04T12:15:01.084Z,17
2019-02-04T12:16:01.083Z,15
2019-02-04T12:17:01.088Z,14
2019-02-04T12:18:01.110Z,16
2019-02-04T12:19:01.082Z,15
2019-02-04T12:20:01.082Z,16
2019-02-04T12:21:01.085Z,17
2019-02-04T12:22:02.762Z,16
2019-02-04T12:23:01.109Z,15
2019-02-04T12:25:01.084Z,13
2019-02-04T12:26:01.084Z,14
2019-02-04T12:27:01.085Z,15
2019-02-04T12:28:01.110Z,16
2019-02-04T12:29:01.084Z,17
2019-02-04T12:30:01.977Z,19
2019-02-04T12:31:02.114Z,16
2019-02-04T12:32:01.117Z,17
2019-02-04T12:33:01.089Z,16
2019-02-04T12:34:01.092Z,14
2019-02-04T12:36:02.089Z,15
2019-02-04T12:37:01.142Z,14
2019-02-04T12:39:01.086Z,15
2019-02-04T12:40:01.087Z,16
2019-02-04T12:41:01.098Z,17
2019-02-04T12:42:01.116Z,16
2019-02-04T12:45:01.089Z,16
2019-02-04T12:47:01.111Z,17
2019-02-04T12:49:01.094Z,18
2019-02-04T12:51:01.087Z,15
2019-02-04T12:52:01.112Z,14
2019-02-04T12:53:01.090Z,15
2019-02-04T12:54:01.088Z,14
2019-02-04T12:55:01.101Z,16
2019-02-04T12:56:01.092Z,17
2019-02-04T12:58:01.129Z,15
2019-02-04T12:59:01.091Z,16
2019-02-04T13:00:01.093Z,16
2019-02-04T13:01:01.098Z,17
2019-02-04T13:03:01.124Z,18
2019-02-04T13:04:01.093Z,17
2019-02-04T13:05:01.100Z,18
2019-02-04T13:06:01.098Z,19
2019-02-04T13:10:01.091Z,20
2019-02-04T13:11:01.186Z,19
2019-02-04T13:12:01.091Z,18
2019-02-04T13:13:01.092Z,19
2019-02-04T13:14:01.126Z,18
2019-02-04T13:15:01.093Z,17
2019-02-04T13:16:01.099Z,18
2019-02-04T13:17:01.105Z,19
2019-02-04T13:18:01.091Z,17
2019-02-04T13:21:01.091Z,14
2019-02-04T13:22:01.094Z,15
2019-02-04T13:24:01.133Z,16
2019-02-04T13:26:01.095Z,17
2019-02-04T13:27:01.094Z,18
2019-02-04T13:28:01.998Z,19
2019-02-04T13:29:01.128Z,18
2019-02-04T13:30:01.107Z,19
2019-02-04T13:31:01.095Z,20
2019-02-04T13:32:01.094Z,18
2019-02-04T13:33:01.097Z,16
2019-02-04T13:35:01.096Z,15
2019-02-04T13:36:01.098Z,14
2019-02-04T13:37:01.095Z,15
2019-02-04T13:38:01.094Z,17
2019-02-04T13:39:01.101Z,19
2019-02-04T13:40:01.105Z,20
2019-02-04T13:42:01.078Z,21
2019-02-04T13:43:01.138Z,20
2019-02-04T13:44:01.081Z,19
2019-02-04T13:45:01.080Z,18
2019-02-04T13:46:01.085Z,17
2019-02-04T13:47:01.081Z,16
2019-02-04T13:48:01.079Z,17
2019-02-04T13:49:01.080Z,15
2019-02-04T13:50:01.098Z,14
2019-02-04T13:51:01.080Z,15
2019-02-04T13:54:01.080Z,17
2019-02-04T13:55:06.087Z,18
2019-02-04T13:56:01.080Z,17
2019-02-04T13:58:01.082Z,16
2019-02-04T13:59:01.082Z,17
2019-02-04T14:00:01.090Z,17
2019-02-04T14:01:01.114Z,16
2019-02-04T14:04:01.082Z,15
2019-02-04T14:06:01.081Z,16
2019-02-04T14:07:01.079Z,15
2019-02-04T14:08:01.082Z,14
2019-02-04T14:10:01.087Z,13
2019-02-04T14:12:01.088Z,15
2019-02-04T14:13:01.081Z,16
2019-02-04T14:15:01.089Z,17
2019-02-04T14:17:01.085Z,15
2019-02-04T14:18:01.082Z,16
2019-02-04T14:19:01.084Z,18
2019-02-04T14:20:01.088Z,17
2019-02-04T14:21:01.088Z,19
2019-02-04T14:23:01.084Z,18
2019-02-04T14:27:01.083Z,17
2019-02-04T14:28:03.438Z,16
2019-02-04T14:29:01.098Z,15
2019-02-04T14:30:01.089Z,15
2019-02-04T14:33:01.083Z,16
2019-02-04T14:36:01.088Z,15
2019-02-04T14:37:01.082Z,16
2019-02-04T14:38:01.083Z,17
2019-02-04T14:40:01.102Z,18
2019-02-04T14:41:01.086Z,17
2019-02-04T14:42:01.089Z,16
2019-02-04T14:44:01.089Z,15
2019-02-04T14:45:01.099Z,13
2019-02-04T14:46:01.086Z,15
2019-02-04T14:48:04.117Z,16
2019-02-04T14:49:01.087Z,17
2019-02-04T14:50:01.085Z,18
2019-02-04T14:51:01.086Z,17
2019-02-04T14:53:01.088Z,15
2019-02-04T14:57:01.088Z,14
2019-02-04T14:59:01.087Z,15
2019-02-04T15:00:01.093Z,16
2019-02-04T15:03:01.126Z,17
2019-02-04T15:05:01.090Z,14
2019-02-04T15:08:01.088Z,16
2019-02-04T15:09:02.041Z,15
2019-02-04T15:10:01.101Z,17
2019-02-04T15:11:01.086Z,16
2019-02-04T15:13:01.087Z,15
2019-02-04T15:15:01.094Z,15
2019-02-04T15:16:01.089Z,14
2019-02-04T15:18:01.122Z,13
2019-02-04T15:19:02.168Z,14
2019-02-04T15:20:01.289Z,18
2019-02-04T15:21:01.089Z,19
2019-02-04T15:25:01.102Z,18
2019-02-04T15:26:01.090Z,19
2019-02-04T15:30:01.105Z,17
2019-02-04T15:32:01.089Z,18
2019-02-04T15:33:06.092Z,17
2019-02-04T15:34:01.093Z,14
2019-02-04T15:35:04.322Z,15
2019-02-04T15:36:01.098Z,14
2019-02-04T15:37:01.092Z,15
2019-02-04T15:38:06.096Z,17
2019-02-04T15:39:01.092Z,19
2019-02-04T15:42:01.102Z,18
2019-02-04T15:43:06.097Z,17
2019-02-04T15:44:01.098Z,16
2019-02-04T15:45:01.092Z,14
2019-02-04T15:46:01.563Z,13
2019-02-04T15:47:01.109Z,14
2019-02-04T15:48:01.115Z,13
2019-02-04T15:50:01.090Z,14
2019-02-04T15:51:01.089Z,15
2019-02-04T15:54:01.090Z,17
2019-02-04T15:55:01.092Z,16
2019-02-04T15:57:01.096Z,15
2019-02-04T16:00:01.102Z,15
2019-02-04T16:02:01.104Z,16
2019-02-04T16:03:01.117Z,17
2019-02-04T16:04:01.091Z,16
2019-02-04T16:05:01.151Z,17
2019-02-04T16:06:01.091Z,18
2019-02-04T16:07:01.091Z,17
2019-02-04T16:08:06.103Z,16
2019-02-04T16:10:01.105Z,17
2019-02-04T16:12:01.093Z,18
2019-02-04T16:15:01.097Z,16
2019-02-04T16:16:01.094Z,15
2019-02-04T16:18:01.095Z,16
2019-02-04T16:19:01.131Z,17
2019-02-04T16:20:01.101Z,19
2019-02-04T16:21:01.094Z,20
2019-02-04T16:24:01.133Z,16
2019-02-04T16:26:01.128Z,15
2019-02-04T16:27:01.104Z,14
2019-02-04T16:29:01.092Z,16
2019-02-04T16:30:01.095Z,19
2019-02-04T16:31:06.095Z,18
2019-02-04T16:32:01.092Z,19
2019-02-04T16:33:01.094Z,18
2019-02-04T16:35:06.114Z,16
2019-02-04T16:36:01.102Z,17
2019-02-04T16:37:01.097Z,14
2019-02-04T16:38:01.103Z,15
2019-02-04T16:39:01.093Z,17
2019-02-04T16:41:01.099Z,18
2019-02-04T16:42:01.095Z,19
2019-02-04T16:45:01.113Z,18
2019-02-04T16:48:01.093Z,16
2019-02-04T16:54:01.120Z,17
2019-02-04T16:56:01.092Z,19
2019-02-04T16:57:01.094Z,18
2019-02-04T16:58:01.094Z,19
2019-02-04T16:59:01.121Z,17
2019-02-04T17:00:01.100Z,17
2019-02-04T17:01:01.142Z,14
2019-02-04T17:04:01.120Z,16
2019-02-04T17:05:01.097Z,15
2019-02-04T17:06:01.096Z,17
2019-02-04T17:07:02.436Z,18
2019-02-04T17:08:01.853Z,17
2019-02-04T17:10:01.197Z,16
2019-02-04T17:12:01.084Z,17
2019-02-04T17:13:01.115Z,16
2019-02-04T17:14:01.081Z,17
2019-02-04T17:15:01.087Z,17
2019-02-04T17:16:01.086Z,16
2019-02-04T17:17:01.082Z,14
2019-02-04T17:18:01.083Z,16
2019-02-04T17:21:01.090Z,15
2019-02-04T17:24:01.086Z,14
2019-02-04T17:26:01.086Z,16
2019-02-04T17:27:01.088Z,18
2019-02-04T17:28:01.085Z,19
2019-02-04T17:30:01.087Z,20
2019-02-04T17:31:01.553Z,19
2019-02-04T17:32:01.086Z,18
2019-02-04T17:35:01.186Z,16
2019-02-04T17:38:03.972Z,14
2019-02-04T17:40:01.084Z,16
2019-02-04T17:41:01.110Z,19
2019-02-04T17:42:01.081Z,20
2019-02-04T17:43:01.080Z,21
2019-02-04T17:44:01.082Z,22
2019-02-04T17:45:01.094Z,20
2019-02-04T17:46:01.107Z,17
2019-02-04T17:47:01.082Z,16
2019-02-04T17:49:01.081Z,17
2019-02-04T17:50:01.080Z,19
2019-02-04T17:51:01.194Z,20
2019-02-04T17:53:01.085Z,19
2019-02-04T17:54:01.079Z,17
2019-02-04T17:55:01.098Z,15
2019-02-04T17:57:02.115Z,16
2019-02-04T17:59:01.193Z,17
2019-02-04T18:00:01.079Z,18
2019-02-04T18:01:01.117Z,17
2019-02-04T18:03:01.242Z,16
2019-02-04T18:06:01.121Z,17
2019-02-04T18:07:01.080Z,16
2019-02-04T18:08:01.120Z,18
2019-02-04T18:09:01.082Z,17
2019-02-04T18:10:01.080Z,16
2019-02-04T18:12:01.107Z,19
2019-02-04T18:13:01.079Z,17
2019-02-04T18:14:01.079Z,20
2019-02-04T18:15:01.080Z,19
2019-02-04T18:16:01.084Z,18
2019-02-04T18:17:01.107Z,15
2019-02-04T18:18:01.080Z,16
2019-02-04T18:19:01.081Z,17
2019-02-04T18:20:01.084Z,16
2019-02-04T18:21:01.107Z,17
2019-02-04T18:22:01.082Z,19
2019-02-04T18:23:01.080Z,16
2019-02-04T18:24:01.082Z,15
2019-02-04T18:25:01.088Z,17
2019-02-04T18:26:01.109Z,18
2019-02-04T18:27:01.081Z,16
2019-02-04T18:29:01.081Z,15
2019-02-04T18:30:01.085Z,15
2019-02-04T18:31:01.109Z,14
2019-02-04T18:33:01.079Z,16
2019-02-04T18:34:01.079Z,17
2019-02-04T18:35:01.081Z,16
2019-02-04T18:36:01.106Z,14
2019-02-04T18:39:01.081Z,13
2019-02-04T18:40:01.079Z,14
2019-02-04T18:41:01.110Z,17
2019-02-04T18:42:01.079Z,16
2019-02-04T18:43:01.080Z,17
2019-02-04T18:44:01.116Z,19
2019-02-04T18:45:01.093Z,20
2019-02-04T18:46:01.085Z,19
2019-02-04T18:47:01.082Z,18
2019-02-04T18:49:01.083Z,16
2019-02-04T18:50:01.234Z,14
2019-02-04T18:51:01.083Z,13
2019-02-04T18:52:01.084Z,14
2019-02-04T18:54:01.087Z,13
2019-02-04T18:55:01.111Z,15
2019-02-04T18:56:01.087Z,17
2019-02-04T18:57:01.086Z,16
2019-02-04T18:58:02.156Z,14
2019-02-04T18:59:01.095Z,15
2019-02-04T19:00:01.121Z,14
2019-02-04T19:02:01.085Z,16
2019-02-04T19:03:01.085Z,18
2019-02-04T19:05:01.096Z,19
2019-02-04T19:06:01.122Z,18
2019-02-04T19:07:01.090Z,16
2019-02-04T19:10:01.088Z,15
2019-02-04T19:11:01.092Z,17
2019-02-04T19:12:01.089Z,19
2019-02-04T19:13:01.089Z,20
2019-02-04T19:14:01.091Z,19
2019-02-04T19:15:01.231Z,20
2019-02-04T19:18:01.242Z,19
2019-02-04T19:19:01.087Z,18
2019-02-04T19:20:01.089Z,19
2019-02-04T19:21:01.201Z,17
2019-02-04T19:22:01.088Z,18
2019-02-04T19:23:01.089Z,19
2019-02-04T19:24:09.214Z,20
2019-02-04T19:25:01.091Z,19
2019-02-04T19:26:01.124Z,20
2019-02-04T19:27:01.089Z,18
2019-02-04T19:28:01.093Z,17
2019-02-04T19:29:01.091Z,15
2019-02-04T19:30:01.091Z,15
2019-02-04T19:31:01.129Z,16
2019-02-04T19:34:01.092Z,17
2019-02-04T19:37:01.130Z,18
2019-02-04T19:39:01.094Z,19
2019-02-04T19:40:01.095Z,18
2019-02-04T19:42:01.075Z,17
2019-02-04T19:45:01.079Z,16
2019-02-04T19:48:03.156Z,14
2019-02-04T19:49:01.078Z,16
2019-02-04T19:50:01.082Z,17
2019-02-04T19:51:01.107Z,18
2019-02-04T19:53:01.077Z,17
2019-02-04T19:58:01.077Z,18
2019-02-04T20:00:01.087Z,18
2019-02-04T20:03:01.108Z,19
2019-02-04T20:04:01.080Z,20